sensor_id;sensor_type;location;lat;lon;timestamp;P1;durP1;ratioP1;P2;durP2;ratioP2
48185;SDS011;33978;47.432;18.916;2022-11-20T00:01:24;28.75;;;13.43;;
48185;SDS011;33978;47.432;18.916;2022-11-20T00:03:53;27.37;;;13.77;;
48185;SDS011;33978;47.432;18.916;2022-11-20T00:06:21;26.00;;;13.68;;
48185;SDS011;33978;47.432;18.916;2022-11-20T00:08:49;23.70;;;11.85;;
48185;SDS011;33978;47.432;18.916;2022-11-20T00:11:21;23.73;;;12.37;;
48185;SDS011;33978;47.432;18.916;2022-11-20T00:13:51;21.10;;;11.27;;
48185;SDS011;33978;47.432;18.916;2022-11-20T00:16:21;18.75;;;10.63;;
48185;SDS011;33978;47.432;18.916;2022-11-20T00:18:49;22.30;;;12.10;;
48185;SDS011;33978;47.432;18.916;2022-11-20T00:21:18;21.98;;;11.50;;
48185;SDS011;33978;47.432;18.916;2022-11-20T00:23:48;20.50;;;10.93;;
48185;SDS011;33978;47.432;18.916;2022-11-20T00:26:16;22.92;;;12.95;;
48185;SDS011;33978;47.432;18.916;2022-11-20T00:28:50;20.55;;;11.23;;
48185;SDS011;33978;47.432;18.916;2022-11-20T00:31:19;20.60;;;10.25;;
48185;SDS011;33978;47.432;18.916;2022-11-20T00:33:47;18.00;;;9.95;;
48185;SDS011;33978;47.432;18.916;2022-11-20T00:36:16;17.55;;;10.25;;
48185;SDS011;33978;47.432;18.916;2022-11-20T00:38:45;17.40;;;9.65;;
48185;SDS011;33978;47.432;18.916;2022-11-20T00:41:14;18.80;;;9.63;;
48185;SDS011;33978;47.432;18.916;2022-11-20T00:43:42;19.30;;;10.65;;
48185;SDS011;33978;47.432;18.916;2022-11-20T00:46:12;19.85;;;10.30;;
48185;SDS011;33978;47.432;18.916;2022-11-20T00:48:40;3.83;;;2.42;;
48185;SDS011;33978;47.432;18.916;2022-11-20T00:51:08;20.30;;;10.70;;
48185;SDS011;33978;47.432;18.916;2022-11-20T00:53:36;22.67;;;11.55;;
48185;SDS011;33978;47.432;18.916;2022-11-20T00:56:04;19.15;;;10.85;;
48185;SDS011;33978;47.432;18.916;2022-11-20T00:58:33;20.62;;;10.98;;
48185;SDS011;33978;47.432;18.916;2022-11-20T01:01:03;19.98;;;11.40;;
48185;SDS011;33978;47.432;18.916;2022-11-20T01:03:33;21.15;;;11.55;;
48185;SDS011;33978;47.432;18.916;2022-11-20T01:06:03;21.37;;;11.35;;
48185;SDS011;33978;47.432;18.916;2022-11-20T01:08:34;19.62;;;11.38;;
48185;SDS011;33978;47.432;18.916;2022-11-20T01:11:04;21.25;;;11.88;;
48185;SDS011;33978;47.432;18.916;2022-11-20T01:13:33;22.62;;;11.70;;
48185;SDS011;33978;47.432;18.916;2022-11-20T01:18:43;22.10;;;10.85;;
48185;SDS011;33978;47.432;18.916;2022-11-20T01:21:13;20.45;;;10.80;;
48185;SDS011;33978;47.432;18.916;2022-11-20T01:23:42;21.92;;;10.98;;
48185;SDS011;33978;47.432;18.916;2022-11-20T01:26:11;18.60;;;11.05;;
48185;SDS011;33978;47.432;18.916;2022-11-20T01:28:40;18.15;;;10.15;;
48185;SDS011;33978;47.432;18.916;2022-11-20T01:31:12;1.00;;;0.90;;
48185;SDS011;33978;47.432;18.916;2022-11-20T01:33:40;17.55;;;10.05;;
48185;SDS011;33978;47.432;18.916;2022-11-20T01:36:08;20.12;;;10.90;;
48185;SDS011;33978;47.432;18.916;2022-11-20T01:38:36;19.42;;;10.63;;
48185;SDS011;33978;47.432;18.916;2022-11-20T01:41:04;19.00;;;10.98;;
48185;SDS011;33978;47.432;18.916;2022-11-20T01:43:32;20.62;;;11.48;;
48185;SDS011;33978;47.432;18.916;2022-11-20T01:46:04;19.52;;;11.15;;
48185;SDS011;33978;47.432;18.916;2022-11-20T01:49:00;20.70;;;11.12;;
48185;SDS011;33978;47.432;18.916;2022-11-20T01:51:39;19.02;;;11.43;;
48185;SDS011;33978;47.432;18.916;2022-11-20T01:54:11;19.15;;;10.52;;
48185;SDS011;33978;47.432;18.916;2022-11-20T01:56:44;18.25;;;10.70;;
48185;SDS011;33978;47.432;18.916;2022-11-20T01:59:13;19.08;;;10.32;;
48185;SDS011;33978;47.432;18.916;2022-11-20T02:01:43;17.37;;;9.48;;
48185;SDS011;33978;47.432;18.916;2022-11-20T02:04:10;18.62;;;9.75;;
48185;SDS011;33978;47.432;18.916;2022-11-20T02:06:42;18.00;;;9.93;;
48185;SDS011;33978;47.432;18.916;2022-11-20T02:09:12;19.45;;;10.25;;
48185;SDS011;33978;47.432;18.916;2022-11-20T02:11:40;18.73;;;10.93;;
48185;SDS011;33978;47.432;18.916;2022-11-20T02:14:08;22.15;;;11.10;;
48185;SDS011;33978;47.432;18.916;2022-11-20T02:16:39;20.77;;;10.88;;
48185;SDS011;33978;47.432;18.916;2022-11-20T02:24:19;19.48;;;10.60;;
48185;SDS011;33978;47.432;18.916;2022-11-20T02:29:27;18.23;;;10.38;;
48185;SDS011;33978;47.432;18.916;2022-11-20T02:32:00;16.48;;;9.52;;
48185;SDS011;33978;47.432;18.916;2022-11-20T02:34:28;19.42;;;11.25;;
48185;SDS011;33978;47.432;18.916;2022-11-20T02:36:56;20.88;;;11.05;;
48185;SDS011;33978;47.432;18.916;2022-11-20T02:39:24;19.83;;;10.90;;
48185;SDS011;33978;47.432;18.916;2022-11-20T02:41:53;20.60;;;11.82;;
48185;SDS011;33978;47.432;18.916;2022-11-20T02:44:21;22.77;;;12.18;;
48185;SDS011;33978;47.432;18.916;2022-11-20T02:46:48;24.67;;;13.15;;
48185;SDS011;33978;47.432;18.916;2022-11-20T02:49:16;26.00;;;13.25;;
48185;SDS011;33978;47.432;18.916;2022-11-20T02:51:44;25.58;;;13.95;;
48185;SDS011;33978;47.432;18.916;2022-11-20T02:54:11;27.73;;;14.77;;
48185;SDS011;33978;47.432;18.916;2022-11-20T02:56:39;27.98;;;14.20;;
48185;SDS011;33978;47.432;18.916;2022-11-20T02:59:06;29.63;;;14.75;;
48185;SDS011;33978;47.432;18.916;2022-11-20T03:01:34;30.00;;;15.70;;
48185;SDS011;33978;47.432;18.916;2022-11-20T03:04:01;31.87;;;15.27;;
48185;SDS011;33978;47.432;18.916;2022-11-20T03:06:29;28.45;;;15.02;;
48185;SDS011;33978;47.432;18.916;2022-11-20T03:08:56;30.92;;;15.73;;
48185;SDS011;33978;47.432;18.916;2022-11-20T03:11:24;31.85;;;15.85;;
48185;SDS011;33978;47.432;18.916;2022-11-20T03:13:51;29.40;;;15.25;;
48185;SDS011;33978;47.432;18.916;2022-11-20T03:16:19;31.73;;;16.70;;
48185;SDS011;33978;47.432;18.916;2022-11-20T03:18:48;32.13;;;15.98;;
48185;SDS011;33978;47.432;18.916;2022-11-20T03:21:16;31.40;;;15.88;;
48185;SDS011;33978;47.432;18.916;2022-11-20T03:23:43;30.55;;;15.82;;
48185;SDS011;33978;47.432;18.916;2022-11-20T03:26:15;30.58;;;15.20;;
48185;SDS011;33978;47.432;18.916;2022-11-20T03:28:51;29.67;;;15.38;;
48185;SDS011;33978;47.432;18.916;2022-11-20T03:31:20;29.50;;;14.52;;
48185;SDS011;33978;47.432;18.916;2022-11-20T03:33:49;30.48;;;14.35;;
48185;SDS011;33978;47.432;18.916;2022-11-20T03:36:17;29.02;;;15.85;;
48185;SDS011;33978;47.432;18.916;2022-11-20T03:38:45;29.95;;;14.35;;
48185;SDS011;33978;47.432;18.916;2022-11-20T03:41:14;27.75;;;15.55;;
48185;SDS011;33978;47.432;18.916;2022-11-20T03:43:51;33.55;;;15.98;;
48185;SDS011;33978;47.432;18.916;2022-11-20T03:46:24;7.43;;;2.62;;
48185;SDS011;33978;47.432;18.916;2022-11-20T03:48:51;31.95;;;14.35;;
48185;SDS011;33978;47.432;18.916;2022-11-20T03:51:20;32.38;;;15.32;;
48185;SDS011;33978;47.432;18.916;2022-11-20T03:53:52;30.42;;;16.00;;
48185;SDS011;33978;47.432;18.916;2022-11-20T03:56:22;30.83;;;16.33;;
48185;SDS011;33978;47.432;18.916;2022-11-20T03:58:51;30.95;;;16.65;;
48185;SDS011;33978;47.432;18.916;2022-11-20T04:01:20;30.20;;;15.85;;
48185;SDS011;33978;47.432;18.916;2022-11-20T04:03:49;28.67;;;14.68;;
48185;SDS011;33978;47.432;18.916;2022-11-20T04:06:17;31.00;;;14.95;;
48185;SDS011;33978;47.432;18.916;2022-11-20T04:08:46;30.58;;;15.38;;
48185;SDS011;33978;47.432;18.916;2022-11-20T04:11:23;32.70;;;16.77;;
48185;SDS011;33978;47.432;18.916;2022-11-20T04:13:53;34.00;;;16.87;;
48185;SDS011;33978;47.432;18.916;2022-11-20T04:16:24;31.23;;;16.73;;
48185;SDS011;33978;47.432;18.916;2022-11-20T04:18:55;30.75;;;16.45;;
48185;SDS011;33978;47.432;18.916;2022-11-20T04:21:24;32.63;;;17.17;;
48185;SDS011;33978;47.432;18.916;2022-11-20T04:23:52;30.02;;;15.32;;
48185;SDS011;33978;47.432;18.916;2022-11-20T04:26:20;28.33;;;14.32;;
48185;SDS011;33978;47.432;18.916;2022-11-20T04:28:49;27.77;;;15.00;;
48185;SDS011;33978;47.432;18.916;2022-11-20T04:31:17;26.45;;;13.50;;
48185;SDS011;33978;47.432;18.916;2022-11-20T04:33:49;24.42;;;13.93;;
48185;SDS011;33978;47.432;18.916;2022-11-20T04:38:55;27.67;;;14.52;;
48185;SDS011;33978;47.432;18.916;2022-11-20T04:41:24;25.73;;;14.43;;
48185;SDS011;33978;47.432;18.916;2022-11-20T04:43:54;27.08;;;14.30;;
48185;SDS011;33978;47.432;18.916;2022-11-20T04:46:27;26.83;;;14.75;;
48185;SDS011;33978;47.432;18.916;2022-11-20T04:48:54;27.20;;;14.43;;
48185;SDS011;33978;47.432;18.916;2022-11-20T04:51:21;25.05;;;13.10;;
48185;SDS011;33978;47.432;18.916;2022-11-20T04:53:49;24.77;;;12.82;;
48185;SDS011;33978;47.432;18.916;2022-11-20T04:56:16;23.75;;;13.02;;
48185;SDS011;33978;47.432;18.916;2022-11-20T04:58:44;24.80;;;13.35;;
48185;SDS011;33978;47.432;18.916;2022-11-20T05:01:12;22.67;;;12.55;;
48185;SDS011;33978;47.432;18.916;2022-11-20T05:03:44;24.95;;;14.10;;
48185;SDS011;33978;47.432;18.916;2022-11-20T05:06:13;28.25;;;14.32;;
48185;SDS011;33978;47.432;18.916;2022-11-20T05:08:42;23.20;;;12.73;;
48185;SDS011;33978;47.432;18.916;2022-11-20T05:11:11;22.65;;;12.98;;
48185;SDS011;33978;47.432;18.916;2022-11-20T05:13:40;23.80;;;13.18;;
48185;SDS011;33978;47.432;18.916;2022-11-20T05:16:11;25.30;;;13.50;;
48185;SDS011;33978;47.432;18.916;2022-11-20T05:18:41;23.38;;;13.23;;
48185;SDS011;33978;47.432;18.916;2022-11-20T05:21:09;24.63;;;13.40;;
48185;SDS011;33978;47.432;18.916;2022-11-20T05:23:37;22.45;;;12.70;;
48185;SDS011;33978;47.432;18.916;2022-11-20T05:26:06;23.83;;;12.35;;
48185;SDS011;33978;47.432;18.916;2022-11-20T05:28:35;23.25;;;12.55;;
48185;SDS011;33978;47.432;18.916;2022-11-20T05:33:34;23.58;;;13.02;;
48185;SDS011;33978;47.432;18.916;2022-11-20T05:36:03;22.13;;;12.43;;
48185;SDS011;33978;47.432;18.916;2022-11-20T05:38:31;22.65;;;12.82;;
48185;SDS011;33978;47.432;18.916;2022-11-20T05:41:12;25.62;;;13.45;;
48185;SDS011;33978;47.432;18.916;2022-11-20T05:43:46;22.80;;;12.80;;
48185;SDS011;33978;47.432;18.916;2022-11-20T05:46:15;23.55;;;12.32;;
48185;SDS011;33978;47.432;18.916;2022-11-20T05:48:54;25.48;;;13.57;;
48185;SDS011;33978;47.432;18.916;2022-11-20T05:51:23;22.00;;;12.20;;
48185;SDS011;33978;47.432;18.916;2022-11-20T05:53:50;26.50;;;14.52;;
48185;SDS011;33978;47.432;18.916;2022-11-20T05:56:18;27.90;;;15.52;;
48185;SDS011;33978;47.432;18.916;2022-11-20T05:58:47;29.30;;;14.60;;
48185;SDS011;33978;47.432;18.916;2022-11-20T06:01:17;28.33;;;15.75;;
48185;SDS011;33978;47.432;18.916;2022-11-20T06:03:46;28.83;;;14.32;;
48185;SDS011;33978;47.432;18.916;2022-11-20T06:06:14;25.37;;;13.93;;
48185;SDS011;33978;47.432;18.916;2022-11-20T06:08:42;26.90;;;14.65;;
48185;SDS011;33978;47.432;18.916;2022-11-20T06:11:12;23.98;;;13.90;;
48185;SDS011;33978;47.432;18.916;2022-11-20T06:13:40;24.45;;;14.07;;
48185;SDS011;33978;47.432;18.916;2022-11-20T06:16:09;24.10;;;14.13;;
48185;SDS011;33978;47.432;18.916;2022-11-20T06:18:38;23.48;;;13.60;;
48185;SDS011;33978;47.432;18.916;2022-11-20T06:21:07;22.70;;;12.65;;
48185;SDS011;33978;47.432;18.916;2022-11-20T06:23:40;22.17;;;12.23;;
48185;SDS011;33978;47.432;18.916;2022-11-20T06:26:08;21.75;;;12.35;;
48185;SDS011;33978;47.432;18.916;2022-11-20T06:28:37;20.50;;;11.48;;
48185;SDS011;33978;47.432;18.916;2022-11-20T06:31:06;22.17;;;12.52;;
48185;SDS011;33978;47.432;18.916;2022-11-20T06:33:33;23.77;;;13.15;;
48185;SDS011;33978;47.432;18.916;2022-11-20T06:36:01;25.42;;;13.18;;
48185;SDS011;33978;47.432;18.916;2022-11-20T06:38:36;24.85;;;13.13;;
48185;SDS011;33978;47.432;18.916;2022-11-20T06:41:08;25.65;;;12.90;;
48185;SDS011;33978;47.432;18.916;2022-11-20T06:43:40;24.73;;;13.23;;
48185;SDS011;33978;47.432;18.916;2022-11-20T06:46:08;26.05;;;14.60;;
48185;SDS011;33978;47.432;18.916;2022-11-20T06:48:37;26.35;;;14.55;;
48185;SDS011;33978;47.432;18.916;2022-11-20T06:51:05;24.58;;;14.65;;
48185;SDS011;33978;47.432;18.916;2022-11-20T06:53:33;22.17;;;12.70;;
48185;SDS011;33978;47.432;18.916;2022-11-20T06:56:19;23.90;;;13.23;;
48185;SDS011;33978;47.432;18.916;2022-11-20T06:58:47;21.27;;;12.23;;
48185;SDS011;33978;47.432;18.916;2022-11-20T07:01:15;26.00;;;12.75;;
48185;SDS011;33978;47.432;18.916;2022-11-20T07:03:42;23.35;;;12.55;;
48185;SDS011;33978;47.432;18.916;2022-11-20T07:06:10;26.15;;;13.93;;
48185;SDS011;33978;47.432;18.916;2022-11-20T07:08:37;28.12;;;14.75;;
48185;SDS011;33978;47.432;18.916;2022-11-20T07:11:05;23.12;;;14.00;;
48185;SDS011;33978;47.432;18.916;2022-11-20T07:13:34;23.35;;;14.43;;
48185;SDS011;33978;47.432;18.916;2022-11-20T07:16:03;23.77;;;13.60;;
48185;SDS011;33978;47.432;18.916;2022-11-20T07:18:32;24.98;;;14.30;;
48185;SDS011;33978;47.432;18.916;2022-11-20T07:21:00;24.37;;;13.38;;
48185;SDS011;33978;47.432;18.916;2022-11-20T07:23:28;25.67;;;14.25;;
48185;SDS011;33978;47.432;18.916;2022-11-20T07:25:56;26.62;;;14.68;;
48185;SDS011;33978;47.432;18.916;2022-11-20T07:28:24;22.40;;;13.60;;
48185;SDS011;33978;47.432;18.916;2022-11-20T07:30:51;25.23;;;14.32;;
48185;SDS011;33978;47.432;18.916;2022-11-20T07:33:19;22.27;;;12.75;;
48185;SDS011;33978;47.432;18.916;2022-11-20T07:35:47;22.95;;;12.77;;
48185;SDS011;33978;47.432;18.916;2022-11-20T07:38:15;23.52;;;12.88;;
48185;SDS011;33978;47.432;18.916;2022-11-20T07:40:42;24.83;;;14.45;;
48185;SDS011;33978;47.432;18.916;2022-11-20T07:43:10;25.42;;;14.32;;
48185;SDS011;33978;47.432;18.916;2022-11-20T07:45:38;24.98;;;13.98;;
48185;SDS011;33978;47.432;18.916;2022-11-20T07:48:05;23.65;;;13.65;;
48185;SDS011;33978;47.432;18.916;2022-11-20T07:50:33;27.80;;;14.68;;
48185;SDS011;33978;47.432;18.916;2022-11-20T07:53:04;28.48;;;15.68;;
48185;SDS011;33978;47.432;18.916;2022-11-20T07:55:31;30.50;;;17.33;;
48185;SDS011;33978;47.432;18.916;2022-11-20T07:57:59;28.95;;;15.73;;
48185;SDS011;33978;47.432;18.916;2022-11-20T08:00:26;25.52;;;14.27;;
48185;SDS011;33978;47.432;18.916;2022-11-20T08:02:54;25.40;;;14.60;;
48185;SDS011;33978;47.432;18.916;2022-11-20T08:05:22;25.33;;;14.50;;
48185;SDS011;33978;47.432;18.916;2022-11-20T08:07:49;32.03;;;19.10;;
48185;SDS011;33978;47.432;18.916;2022-11-20T08:10:17;25.80;;;14.50;;
48185;SDS011;33978;47.432;18.916;2022-11-20T08:12:47;26.15;;;13.98;;
48185;SDS011;33978;47.432;18.916;2022-11-20T08:15:35;25.65;;;14.87;;
48185;SDS011;33978;47.432;18.916;2022-11-20T08:18:06;27.15;;;14.40;;
48185;SDS011;33978;47.432;18.916;2022-11-20T08:20:55;29.67;;;15.60;;
48185;SDS011;33978;47.432;18.916;2022-11-20T08:23:22;27.95;;;14.90;;
48185;SDS011;33978;47.432;18.916;2022-11-20T08:25:50;30.75;;;16.73;;
48185;SDS011;33978;47.432;18.916;2022-11-20T08:28:20;25.23;;;15.98;;
48185;SDS011;33978;47.432;18.916;2022-11-20T08:30:49;29.52;;;17.10;;
48185;SDS011;33978;47.432;18.916;2022-11-20T08:33:17;29.12;;;17.48;;
48185;SDS011;33978;47.432;18.916;2022-11-20T08:35:45;27.73;;;17.58;;
48185;SDS011;33978;47.432;18.916;2022-11-20T08:38:13;29.23;;;16.58;;
48185;SDS011;33978;47.432;18.916;2022-11-20T08:40:40;30.62;;;16.77;;
48185;SDS011;33978;47.432;18.916;2022-11-20T08:43:07;30.92;;;16.85;;
48185;SDS011;33978;47.432;18.916;2022-11-20T08:45:35;29.65;;;16.90;;
48185;SDS011;33978;47.432;18.916;2022-11-20T08:48:02;26.85;;;15.38;;
48185;SDS011;33978;47.432;18.916;2022-11-20T08:50:30;26.37;;;13.65;;
48185;SDS011;33978;47.432;18.916;2022-11-20T08:53:03;22.67;;;13.70;;
48185;SDS011;33978;47.432;18.916;2022-11-20T08:55:31;24.45;;;14.52;;
48185;SDS011;33978;47.432;18.916;2022-11-20T08:58:03;22.23;;;13.73;;
48185;SDS011;33978;47.432;18.916;2022-11-20T09:00:31;23.00;;;13.73;;
48185;SDS011;33978;47.432;18.916;2022-11-20T09:03:00;23.27;;;13.50;;
48185;SDS011;33978;47.432;18.916;2022-11-20T09:05:28;22.50;;;12.98;;
48185;SDS011;33978;47.432;18.916;2022-11-20T09:07:56;22.25;;;13.18;;
48185;SDS011;33978;47.432;18.916;2022-11-20T09:10:24;25.05;;;13.73;;
48185;SDS011;33978;47.432;18.916;2022-11-20T09:12:52;25.85;;;14.18;;
48185;SDS011;33978;47.432;18.916;2022-11-20T09:15:20;21.23;;;12.40;;
48185;SDS011;33978;47.432;18.916;2022-11-20T09:17:56;21.87;;;12.57;;
48185;SDS011;33978;47.432;18.916;2022-11-20T09:20:25;22.87;;;13.13;;
48185;SDS011;33978;47.432;18.916;2022-11-20T09:22:55;24.33;;;13.82;;
48185;SDS011;33978;47.432;18.916;2022-11-20T09:25:23;23.77;;;13.98;;
48185;SDS011;33978;47.432;18.916;2022-11-20T09:27:58;23.10;;;13.35;;
48185;SDS011;33978;47.432;18.916;2022-11-20T09:30:25;27.17;;;14.30;;
48185;SDS011;33978;47.432;18.916;2022-11-20T09:32:54;26.70;;;13.27;;
48185;SDS011;33978;47.432;18.916;2022-11-20T09:35:22;21.58;;;11.85;;
48185;SDS011;33978;47.432;18.916;2022-11-20T09:37:49;21.52;;;11.60;;
48185;SDS011;33978;47.432;18.916;2022-11-20T09:40:21;21.40;;;12.20;;
48185;SDS011;33978;47.432;18.916;2022-11-20T09:48:45;25.37;;;13.77;;
48185;SDS011;33978;47.432;18.916;2022-11-20T09:51:36;22.37;;;12.55;;
48185;SDS011;33978;47.432;18.916;2022-11-20T09:54:16;26.77;;;14.68;;
48185;SDS011;33978;47.432;18.916;2022-11-20T09:56:46;24.48;;;13.80;;
48185;SDS011;33978;47.432;18.916;2022-11-20T09:59:21;23.62;;;13.52;;
48185;SDS011;33978;47.432;18.916;2022-11-20T10:01:58;24.90;;;13.88;;
48185;SDS011;33978;47.432;18.916;2022-11-20T10:04:26;24.87;;;14.60;;
48185;SDS011;33978;47.432;18.916;2022-11-20T10:09:53;23.67;;;13.82;;
48185;SDS011;33978;47.432;18.916;2022-11-20T10:12:31;25.02;;;14.77;;
48185;SDS011;33978;47.432;18.916;2022-11-20T10:15:32;25.67;;;13.38;;
48185;SDS011;33978;47.432;18.916;2022-11-20T10:20:43;25.27;;;14.45;;
48185;SDS011;33978;47.432;18.916;2022-11-20T10:31:42;25.70;;;13.55;;
48185;SDS011;33978;47.432;18.916;2022-11-20T10:34:17;24.42;;;13.90;;
48185;SDS011;33978;47.432;18.916;2022-11-20T10:36:52;24.25;;;14.25;;
48185;SDS011;33978;47.432;18.916;2022-11-20T10:39:28;25.50;;;13.93;;
48185;SDS011;33978;47.432;18.916;2022-11-20T10:42:01;24.58;;;13.70;;
48185;SDS011;33978;47.432;18.916;2022-11-20T10:44:29;25.60;;;14.63;;
48185;SDS011;33978;47.432;18.916;2022-11-20T10:47:22;25.52;;;14.05;;
48185;SDS011;33978;47.432;18.916;2022-11-20T10:49:53;26.77;;;14.40;;
48185;SDS011;33978;47.432;18.916;2022-11-20T10:58:13;28.55;;;16.17;;
48185;SDS011;33978;47.432;18.916;2022-11-20T11:00:43;29.17;;;17.40;;
48185;SDS011;33978;47.432;18.916;2022-11-20T11:03:24;24.55;;;14.65;;
48185;SDS011;33978;47.432;18.916;2022-11-20T11:05:55;26.37;;;14.65;;
48185;SDS011;33978;47.432;18.916;2022-11-20T11:08:35;24.02;;;14.45;;
48185;SDS011;33978;47.432;18.916;2022-11-20T11:11:15;26.87;;;14.77;;
48185;SDS011;33978;47.432;18.916;2022-11-20T11:13:47;25.23;;;14.98;;
48185;SDS011;33978;47.432;18.916;2022-11-20T11:16:19;26.90;;;14.90;;
48185;SDS011;33978;47.432;18.916;2022-11-20T11:19:03;25.50;;;14.57;;
48185;SDS011;33978;47.432;18.916;2022-11-20T11:21:34;28.65;;;15.80;;
48185;SDS011;33978;47.432;18.916;2022-11-20T11:24:03;26.50;;;15.82;;
48185;SDS011;33978;47.432;18.916;2022-11-20T11:26:56;24.33;;;14.32;;
48185;SDS011;33978;47.432;18.916;2022-11-20T11:29:25;25.75;;;14.20;;
48185;SDS011;33978;47.432;18.916;2022-11-20T11:32:30;26.92;;;15.60;;
48185;SDS011;33978;47.432;18.916;2022-11-20T11:35:00;26.17;;;15.10;;
48185;SDS011;33978;47.432;18.916;2022-11-20T11:37:34;28.95;;;16.67;;
48185;SDS011;33978;47.432;18.916;2022-11-20T11:40:03;38.97;;;20.42;;
48185;SDS011;33978;47.432;18.916;2022-11-20T11:42:53;40.12;;;23.33;;
48185;SDS011;33978;47.432;18.916;2022-11-20T11:45:22;41.20;;;22.48;;
48185;SDS011;33978;47.432;18.916;2022-11-20T11:47:50;35.85;;;20.45;;
48185;SDS011;33978;47.432;18.916;2022-11-20T11:50:29;28.77;;;16.90;;
48185;SDS011;33978;47.432;18.916;2022-11-20T11:53:05;29.17;;;18.02;;
48185;SDS011;33978;47.432;18.916;2022-11-20T11:55:47;29.23;;;16.87;;
48185;SDS011;33978;47.432;18.916;2022-11-20T12:01:18;30.05;;;16.15;;
48185;SDS011;33978;47.432;18.916;2022-11-20T12:06:45;26.75;;;16.00;;
48185;SDS011;33978;47.432;18.916;2022-11-20T12:09:16;29.48;;;16.37;;
48185;SDS011;33978;47.432;18.916;2022-11-20T12:11:46;28.30;;;16.42;;
48185;SDS011;33978;47.432;18.916;2022-11-20T12:14:50;30.08;;;16.60;;
48185;SDS011;33978;47.432;18.916;2022-11-20T12:17:10;32.40;;;17.30;;
48185;SDS011;33978;47.432;18.916;2022-11-20T12:19:39;33.28;;;18.50;;
48185;SDS011;33978;47.432;18.916;2022-11-20T12:25:06;31.67;;;17.60;;
48185;SDS011;33978;47.432;18.916;2022-11-20T12:27:47;31.55;;;17.90;;
48185;SDS011;33978;47.432;18.916;2022-11-20T12:30:25;32.55;;;19.05;;
48185;SDS011;33978;47.432;18.916;2022-11-20T12:50:11;33.83;;;18.33;;
48185;SDS011;33978;47.432;18.916;2022-11-20T12:52:47;31.25;;;19.48;;
48185;SDS011;33978;47.432;18.916;2022-11-20T12:55:32;35.40;;;19.27;;
48185;SDS011;33978;47.432;18.916;2022-11-20T13:01:08;33.42;;;18.77;;
48185;SDS011;33978;47.432;18.916;2022-11-20T13:03:41;33.42;;;18.80;;
48185;SDS011;33978;47.432;18.916;2022-11-20T13:06:13;30.12;;;17.45;;
48185;SDS011;33978;47.432;18.916;2022-11-20T13:08:53;31.60;;;18.12;;
48185;SDS011;33978;47.432;18.916;2022-11-20T13:11:27;35.25;;;20.33;;
48185;SDS011;33978;47.432;18.916;2022-11-20T13:14:12;34.70;;;19.17;;
48185;SDS011;33978;47.432;18.916;2022-11-20T13:19:41;34.83;;;21.50;;
48185;SDS011;33978;47.432;18.916;2022-11-20T13:22:23;44.88;;;25.50;;
48185;SDS011;33978;47.432;18.916;2022-11-20T13:24:58;36.95;;;21.37;;
48185;SDS011;33978;47.432;18.916;2022-11-20T13:27:26;30.20;;;18.33;;
48185;SDS011;33978;47.432;18.916;2022-11-20T13:29:59;32.88;;;18.37;;
48185;SDS011;33978;47.432;18.916;2022-11-20T13:36:05;36.72;;;21.37;;
48185;SDS011;33978;47.432;18.916;2022-11-20T13:38:21;33.42;;;19.02;;
48185;SDS011;33978;47.432;18.916;2022-11-20T13:40:54;32.15;;;18.75;;
48185;SDS011;33978;47.432;18.916;2022-11-20T13:46:04;38.75;;;22.20;;
48185;SDS011;33978;47.432;18.916;2022-11-20T13:48:43;35.50;;;20.37;;
48185;SDS011;33978;47.432;18.916;2022-11-20T13:54:38;34.53;;;17.55;;
48185;SDS011;33978;47.432;18.916;2022-11-20T13:57:35;28.58;;;16.35;;
48185;SDS011;33978;47.432;18.916;2022-11-20T14:00:25;28.62;;;16.90;;
48185;SDS011;33978;47.432;18.916;2022-11-20T14:05:35;56.03;;;34.67;;
48185;SDS011;33978;47.432;18.916;2022-11-20T14:08:05;32.22;;;19.30;;
48185;SDS011;33978;47.432;18.916;2022-11-20T14:10:34;29.33;;;16.50;;
48185;SDS011;33978;47.432;18.916;2022-11-20T14:13:15;30.70;;;19.15;;
48185;SDS011;33978;47.432;18.916;2022-11-20T14:18:25;30.80;;;17.52;;
48185;SDS011;33978;47.432;18.916;2022-11-20T14:20:53;27.33;;;17.60;;
48185;SDS011;33978;47.432;18.916;2022-11-20T14:23:28;30.90;;;17.50;;
48185;SDS011;33978;47.432;18.916;2022-11-20T14:25:57;31.42;;;17.80;;
48185;SDS011;33978;47.432;18.916;2022-11-20T14:28:26;31.65;;;18.50;;
48185;SDS011;33978;47.432;18.916;2022-11-20T14:30:55;30.20;;;17.40;;
48185;SDS011;33978;47.432;18.916;2022-11-20T14:33:26;35.97;;;20.77;;
48185;SDS011;33978;47.432;18.916;2022-11-20T14:35:54;45.53;;;24.27;;
48185;SDS011;33978;47.432;18.916;2022-11-20T14:38:25;38.88;;;21.83;;
48185;SDS011;33978;47.432;18.916;2022-11-20T14:41:05;39.20;;;23.55;;
48185;SDS011;33978;47.432;18.916;2022-11-20T14:43:34;39.72;;;21.87;;
48185;SDS011;33978;47.432;18.916;2022-11-20T14:46:06;37.17;;;23.05;;
48185;SDS011;33978;47.432;18.916;2022-11-20T14:48:37;37.17;;;21.75;;
48185;SDS011;33978;47.432;18.916;2022-11-20T14:51:08;35.80;;;21.23;;
48185;SDS011;33978;47.432;18.916;2022-11-20T14:53:38;35.10;;;20.90;;
48185;SDS011;33978;47.432;18.916;2022-11-20T14:56:07;34.85;;;20.00;;
48185;SDS011;33978;47.432;18.916;2022-11-20T14:58:35;37.05;;;21.40;;
48185;SDS011;33978;47.432;18.916;2022-11-20T15:01:06;40.20;;;21.55;;
48185;SDS011;33978;47.432;18.916;2022-11-20T15:03:39;33.67;;;20.02;;
48185;SDS011;33978;47.432;18.916;2022-11-20T15:06:10;37.50;;;19.37;;
48185;SDS011;33978;47.432;18.916;2022-11-20T15:08:38;39.92;;;22.58;;
48185;SDS011;33978;47.432;18.916;2022-11-20T15:11:19;42.80;;;24.27;;
48185;SDS011;33978;47.432;18.916;2022-11-20T15:13:50;47.13;;;25.80;;
48185;SDS011;33978;47.432;18.916;2022-11-20T15:16:18;42.13;;;24.20;;
48185;SDS011;33978;47.432;18.916;2022-11-20T15:18:47;44.85;;;24.85;;
48185;SDS011;33978;47.432;18.916;2022-11-20T15:21:16;47.25;;;27.42;;
48185;SDS011;33978;47.432;18.916;2022-11-20T15:23:45;46.05;;;25.20;;
48185;SDS011;33978;47.432;18.916;2022-11-20T15:26:13;78.18;;;39.42;;
48185;SDS011;33978;47.432;18.916;2022-11-20T15:28:47;134.48;;;57.70;;
48185;SDS011;33978;47.432;18.916;2022-11-20T15:31:19;105.32;;;49.65;;
48185;SDS011;33978;47.432;18.916;2022-11-20T15:33:50;91.97;;;44.80;;
48185;SDS011;33978;47.432;18.916;2022-11-20T15:36:19;127.25;;;55.50;;
48185;SDS011;33978;47.432;18.916;2022-11-20T15:38:47;112.68;;;52.60;;
48185;SDS011;33978;47.432;18.916;2022-11-20T15:41:15;99.45;;;48.05;;
48185;SDS011;33978;47.432;18.916;2022-11-20T15:43:43;90.87;;;46.00;;
48185;SDS011;33978;47.432;18.916;2022-11-20T15:46:12;84.70;;;41.88;;
48185;SDS011;33978;47.432;18.916;2022-11-20T15:48:42;77.43;;;39.13;;
48185;SDS011;33978;47.432;18.916;2022-11-20T15:51:20;66.25;;;36.60;;
48185;SDS011;33978;47.432;18.916;2022-11-20T15:54:11;68.30;;;38.42;;
48185;SDS011;33978;47.432;18.916;2022-11-20T15:56:48;62.58;;;34.40;;
48185;SDS011;33978;47.432;18.916;2022-11-20T15:59:17;58.53;;;32.53;;